createdAt,value
2023-02-04T00:00:07.669Z,4.60
2023-02-04T00:02:09.305Z,7.88
2023-02-04T00:04:12.726Z,5.82
2023-02-04T00:06:14.335Z,7.35
2023-02-04T00:08:16.021Z,6.25
2023-02-04T00:10:19.017Z,6.65
2023-02-04T00:12:20.650Z,6.30
2023-02-04T00:14:22.253Z,5.70
2023-02-04T00:16:24.059Z,12.82
2023-02-04T00:18:25.649Z,5.32
2023-02-04T00:20:27.301Z,14.02
2023-02-04T00:22:29.295Z,5.45
2023-02-04T00:24:31.192Z,5.38
2023-02-04T00:26:32.822Z,5.43
2023-02-04T00:28:34.628Z,5.07
2023-02-04T00:30:36.239Z,6.88
2023-02-04T00:32:37.946Z,5.55
2023-02-04T00:34:39.621Z,5.07
2023-02-04T00:36:41.352Z,6.90
2023-02-04T00:38:42.954Z,5.70
2023-02-04T00:40:44.580Z,4.57
2023-02-04T00:42:46.225Z,5.78
2023-02-04T00:44:48.009Z,5.30
2023-02-04T00:46:49.727Z,5.47
2023-02-04T00:48:51.348Z,5.18
2023-02-04T00:50:54.163Z,5.72
2023-02-04T00:52:55.928Z,5.20
2023-02-04T00:54:57.647Z,8.23
2023-02-04T00:56:59.430Z,6.28
2023-02-04T00:59:01.174Z,4.60
2023-02-04T01:01:03.057Z,5.55
2023-02-04T01:03:04.853Z,5.80
2023-02-04T01:05:10.505Z,3.92
2023-02-04T01:07:12.238Z,6.07
2023-02-04T01:09:14.011Z,3.97
2023-02-04T01:11:15.692Z,5.50
2023-02-04T01:13:17.319Z,5.72
2023-02-04T01:15:18.947Z,5.60
2023-02-04T01:17:21.295Z,4.88
2023-02-04T01:19:22.918Z,3.92
2023-02-04T01:21:24.977Z,4.13
2023-02-04T01:23:26.651Z,3.33
2023-02-04T01:25:28.349Z,3.35
2023-02-04T01:27:30.016Z,1.92
2023-02-04T01:29:31.672Z,1.02
2023-02-04T01:31:34.193Z,1.52
2023-02-04T01:33:35.863Z,0.95
2023-02-04T01:35:37.501Z,1.40
2023-02-04T01:37:39.202Z,1.10
2023-02-04T01:39:40.885Z,1.27
2023-02-04T01:41:42.633Z,1.92
2023-02-04T01:43:45.046Z,1.13
2023-02-04T01:45:46.760Z,0.90
2023-02-04T01:47:48.548Z,1.25
2023-02-04T01:49:52.521Z,0.80
2023-02-04T01:51:54.220Z,1.30
2023-02-04T01:53:56.190Z,1.17
2023-02-04T01:55:57.929Z,1.08
2023-02-04T01:58:00.178Z,1.25
2023-02-04T02:00:01.870Z,2.20
2023-02-04T02:02:23.624Z,1.85
2023-02-04T02:04:33.230Z,0.80
2023-02-04T02:06:35.949Z,0.80
2023-02-04T02:08:37.964Z,2.25
2023-02-04T02:10:41.726Z,1.02
2023-02-04T02:12:43.666Z,1.60
2023-02-04T02:14:45.274Z,0.82
2023-02-04T02:16:47.050Z,4.72
2023-02-04T02:18:49.055Z,1.35
2023-02-04T02:20:50.691Z,1.00
2023-02-04T02:23:06.981Z,0.77
2023-02-04T02:25:11.595Z,2.05
2023-02-04T02:27:13.605Z,0.80
2023-02-04T02:29:15.210Z,1.88
2023-02-04T02:31:18.761Z,1.05
2023-02-04T02:33:21.506Z,1.90
2023-02-04T02:35:23.388Z,1.13
2023-02-04T02:37:25.344Z,2.10
2023-02-04T02:39:27.237Z,0.85
2023-02-04T02:41:28.932Z,1.00
2023-02-04T02:43:31.086Z,2.25
2023-02-04T02:45:33.614Z,2.47
2023-02-04T02:47:35.313Z,0.95
2023-02-04T02:49:38.159Z,1.08
2023-02-04T02:51:39.869Z,0.93
2023-02-04T02:53:41.512Z,2.47
2023-02-04T02:55:43.886Z,1.05
2023-02-04T02:57:49.483Z,0.80
2023-02-04T02:59:51.075Z,1.48
2023-02-04T03:01:57.523Z,2.03
2023-02-04T03:03:59.180Z,1.27
2023-02-04T03:06:10.016Z,1.02
2023-02-04T03:08:12.985Z,1.95
2023-02-04T03:10:16.760Z,2.60
2023-02-04T03:12:18.533Z,6.18
2023-02-04T03:14:20.544Z,1.23
2023-02-04T03:16:22.232Z,6.15
2023-02-04T03:18:23.971Z,0.70
2023-02-04T03:20:28.484Z,1.10
2023-02-04T03:22:30.573Z,1.00
2023-02-04T03:24:32.472Z,0.73
2023-02-04T03:26:34.266Z,2.50
2023-02-04T03:28:40.247Z,0.80
2023-02-04T03:30:42.066Z,1.90
2023-02-04T03:32:43.783Z,2.92
2023-02-04T03:34:45.432Z,1.65
2023-02-04T03:36:47.106Z,1.30
2023-02-04T03:38:48.732Z,2.58
2023-02-04T03:40:50.401Z,1.55
2023-02-04T03:42:52.159Z,2.40
2023-02-04T03:44:53.825Z,1.65
2023-02-04T03:46:56.647Z,1.15
2023-02-04T03:48:58.276Z,0.80
2023-02-04T03:50:59.954Z,1.50
2023-02-04T03:53:01.689Z,2.95
2023-02-04T03:55:03.385Z,1.23
2023-02-04T03:57:05.109Z,1.60
2023-02-04T03:59:06.758Z,1.10
2023-02-04T04:01:08.450Z,2.15
2023-02-04T04:03:10.149Z,1.30
2023-02-04T04:05:12.127Z,1.17
2023-02-04T04:07:13.811Z,1.20
2023-02-04T04:09:15.521Z,1.35
2023-02-04T04:11:17.224Z,2.40
2023-02-04T04:13:18.961Z,3.05
2023-02-04T04:15:20.738Z,1.48
2023-02-04T04:17:22.413Z,1.40
2023-02-04T04:19:24.979Z,4.00
2023-02-04T04:21:26.714Z,1.30
2023-02-04T04:23:28.376Z,1.30
2023-02-04T04:25:30.032Z,1.50
2023-02-04T04:27:31.846Z,1.30
2023-02-04T04:29:33.535Z,1.30
2023-02-04T04:31:35.305Z,2.88
2023-02-04T04:33:36.957Z,1.08
2023-02-04T04:35:38.701Z,0.98
2023-02-04T04:37:40.386Z,1.75
2023-02-04T04:39:42.116Z,2.13
2023-02-04T04:41:43.785Z,3.28
2023-02-04T04:43:45.407Z,1.15
2023-02-04T04:45:47.045Z,3.00
2023-02-04T04:47:48.974Z,4.43
2023-02-04T04:49:50.621Z,2.47
2023-02-04T04:51:52.311Z,1.20
2023-02-04T04:53:53.940Z,0.98
2023-02-04T04:55:55.606Z,2.33
2023-02-04T04:57:57.240Z,0.98
2023-02-04T04:59:58.917Z,1.90
2023-02-04T05:02:00.581Z,1.90
2023-02-04T05:04:04.012Z,1.48
2023-02-04T05:06:05.760Z,1.45
2023-02-04T05:08:13.364Z,2.55
2023-02-04T05:10:15.366Z,1.75
2023-02-04T05:12:17.021Z,1.85
2023-02-04T05:14:18.651Z,1.20
2023-02-04T05:16:20.307Z,0.90
2023-02-04T05:18:22.064Z,1.10
2023-02-04T05:20:23.941Z,1.38
2023-02-04T05:22:25.618Z,1.00
2023-02-04T05:24:27.857Z,1.23
2023-02-04T05:26:31.198Z,4.15
2023-02-04T05:28:33.114Z,0.90
2023-02-04T05:30:35.116Z,1.20
2023-02-04T05:32:36.956Z,1.15
2023-02-04T05:34:39.933Z,1.55
2023-02-04T05:36:41.710Z,0.75
2023-02-04T05:38:43.734Z,1.70
2023-02-04T05:40:45.371Z,1.08
2023-02-04T05:42:47.028Z,1.52
2023-02-04T05:44:48.779Z,2.00
2023-02-04T05:46:50.457Z,1.42
2023-02-04T05:48:52.091Z,1.13
2023-02-04T05:50:53.765Z,2.05
2023-02-04T05:52:56.557Z,1.33
2023-02-04T05:54:58.171Z,1.13
2023-02-04T05:56:59.842Z,1.52
2023-02-04T05:59:01.469Z,1.23
2023-02-04T06:01:03.987Z,2.35
2023-02-04T06:03:05.769Z,1.35
2023-02-04T06:05:07.866Z,5.53
2023-02-04T06:07:09.521Z,1.95
2023-02-04T06:09:11.261Z,1.50
2023-02-04T06:11:12.933Z,0.93
2023-02-04T06:13:14.723Z,0.90
2023-02-04T06:15:16.579Z,4.38
2023-02-04T06:17:18.478Z,1.88
2023-02-04T06:19:20.213Z,2.35
2023-02-04T06:21:21.930Z,1.23
2023-02-04T06:23:23.585Z,1.27
2023-02-04T06:25:25.494Z,1.15
2023-02-04T06:27:27.266Z,1.05
2023-02-04T06:29:28.882Z,1.95
2023-02-04T06:31:31.027Z,1.40
2023-02-04T06:33:32.816Z,1.33
2023-02-04T06:35:34.560Z,1.50
2023-02-04T06:37:36.258Z,1.08
2023-02-04T06:39:37.848Z,2.08
2023-02-04T06:41:39.440Z,1.05
2023-02-04T06:43:41.097Z,1.42
2023-02-04T06:45:42.735Z,1.83
2023-02-04T06:47:44.500Z,1.08
2023-02-04T06:49:46.113Z,1.73
2023-02-04T06:51:48.530Z,1.25
2023-02-04T06:53:50.350Z,1.52
2023-02-04T06:55:52.833Z,1.40
2023-02-04T06:57:54.466Z,4.68
2023-02-04T06:59:56.125Z,2.63
2023-02-04T07:01:57.913Z,1.83
2023-02-04T07:03:59.519Z,3.90
2023-02-04T07:06:01.154Z,3.55
2023-02-04T07:08:02.877Z,3.60
2023-02-04T07:10:04.801Z,2.75
2023-02-04T07:12:06.574Z,2.08
2023-02-04T07:14:08.224Z,1.73
2023-02-04T07:16:09.888Z,1.50
2023-02-04T07:18:11.641Z,1.80
2023-02-04T07:20:13.262Z,5.80
2023-02-04T07:22:15.150Z,0.90
2023-02-04T07:24:16.831Z,1.42
2023-02-04T07:26:18.479Z,1.30
2023-02-04T07:28:20.484Z,1.20
2023-02-04T07:30:22.301Z,0.93
2023-02-04T07:32:23.993Z,1.23
2023-02-04T07:34:25.738Z,1.73
2023-02-04T07:36:27.442Z,1.33
2023-02-04T07:38:29.107Z,1.20
2023-02-04T07:40:31.272Z,2.47
2023-02-04T07:42:33.154Z,1.67
2023-02-04T07:44:34.756Z,3.88
2023-02-04T07:46:36.429Z,0.98
2023-02-04T07:48:38.139Z,2.35
2023-02-04T07:50:39.872Z,2.58
2023-02-04T07:52:42.255Z,1.65
2023-02-04T07:54:43.855Z,7.97
2023-02-04T07:56:45.547Z,3.83
2023-02-04T07:58:47.333Z,1.77
2023-02-04T08:00:49.023Z,2.72
2023-02-04T08:02:50.943Z,3.55
2023-02-04T08:04:52.824Z,3.40
2023-02-04T08:06:54.473Z,6.15
2023-02-04T08:08:56.196Z,5.63
2023-02-04T08:10:58.784Z,4.43
2023-02-04T08:13:00.816Z,5.53
2023-02-04T08:15:02.623Z,5.57
2023-02-04T08:17:04.322Z,4.10
2023-02-04T08:19:05.936Z,4.05
2023-02-04T08:21:07.629Z,4.03
2023-02-04T08:23:09.557Z,4.25
2023-02-04T08:25:12.236Z,5.90
2023-02-04T08:27:14.185Z,5.28
2023-02-04T08:29:15.865Z,5.57
2023-02-04T08:31:17.615Z,4.53
2023-02-04T08:33:19.937Z,9.60
2023-02-04T08:35:21.580Z,4.30
2023-02-04T08:37:23.567Z,3.10
2023-02-04T08:39:25.150Z,4.63
2023-02-04T08:41:26.798Z,3.42
2023-02-04T08:43:28.712Z,4.10
2023-02-04T08:45:30.343Z,4.38
2023-02-04T08:47:32.109Z,3.53
2023-02-04T08:49:33.961Z,4.38
2023-02-04T08:51:35.577Z,2.20
2023-02-04T08:53:37.807Z,5.55
2023-02-04T08:55:39.444Z,2.63
2023-02-04T08:57:41.134Z,4.00
2023-02-04T08:59:42.761Z,1.80
2023-02-04T09:01:51.023Z,4.45
2023-02-04T09:03:53.166Z,4.03
2023-02-04T09:05:54.777Z,6.07
2023-02-04T09:07:56.528Z,2.65
2023-02-04T09:09:58.173Z,7.75
2023-02-04T09:12:01.990Z,4.03
2023-02-04T09:14:03.633Z,3.55
2023-02-04T09:16:05.660Z,4.07
2023-02-04T09:18:18.908Z,3.20
2023-02-04T09:20:21.625Z,3.58
2023-02-04T09:22:23.389Z,4.00
2023-02-04T09:24:25.021Z,2.97
2023-02-04T09:26:26.649Z,4.68
2023-02-04T09:28:28.297Z,3.15
2023-02-04T09:30:30.277Z,6.43
2023-02-04T09:32:33.264Z,7.55
2023-02-04T09:34:34.902Z,6.30
2023-02-04T09:36:38.568Z,9.18
2023-02-04T09:38:40.258Z,3.03
2023-02-04T09:40:47.991Z,3.42
2023-02-04T09:42:51.248Z,3.17
2023-02-04T09:44:53.153Z,2.53
2023-02-04T09:46:56.900Z,3.35
2023-02-04T09:48:59.328Z,5.22
2023-02-04T09:51:06.458Z,12.25
2023-02-04T09:53:13.520Z,6.07
2023-02-04T09:55:16.938Z,3.72
2023-02-04T09:57:19.839Z,5.47
2023-02-04T09:59:23.377Z,4.15
2023-02-04T10:01:27.222Z,4.22
2023-02-04T10:03:29.292Z,3.38
2023-02-04T10:05:32.845Z,4.60
2023-02-04T10:07:35.347Z,4.07
2023-02-04T10:09:36.980Z,4.05
2023-02-04T10:11:39.661Z,5.45
2023-02-04T10:13:52.397Z,3.47
2023-02-04T10:15:54.089Z,5.43
2023-02-04T10:17:59.320Z,3.58
2023-02-04T10:20:01.371Z,5.85
2023-02-04T10:22:03.898Z,5.43
2023-02-04T10:24:17.394Z,8.40
2023-02-04T10:26:21.211Z,12.23
2023-02-04T10:28:36.019Z,3.70
2023-02-04T10:30:43.739Z,6.88
2023-02-04T10:32:45.535Z,9.43
2023-02-04T10:34:47.150Z,6.72
2023-02-04T10:36:50.780Z,3.53
2023-02-04T10:39:03.862Z,7.55
2023-02-04T10:41:06.352Z,3.92
2023-02-04T10:43:15.292Z,2.97
2023-02-04T10:45:28.896Z,3.65
2023-02-04T10:47:31.622Z,11.15
2023-02-04T10:49:33.497Z,7.93
2023-02-04T10:51:35.140Z,5.57
2023-02-04T10:53:55.216Z,7.93
2023-02-04T10:55:57.453Z,6.38
2023-02-04T10:58:03.204Z,3.20
2023-02-04T11:00:07.554Z,3.03
2023-02-04T11:02:41.136Z,4.45
2023-02-04T11:04:42.778Z,5.80
2023-02-04T11:06:44.429Z,10.38
2023-02-04T11:08:46.304Z,7.55
2023-02-04T11:10:51.709Z,6.40
2023-02-04T11:12:53.320Z,4.15
2023-02-04T11:14:58.263Z,3.75
2023-02-04T11:17:02.364Z,2.38
2023-02-04T11:19:06.514Z,7.53
2023-02-04T11:21:15.761Z,7.03
2023-02-04T11:23:26.575Z,3.47
2023-02-04T11:25:35.732Z,5.45
2023-02-04T11:27:39.963Z,3.85
2023-02-04T11:29:42.985Z,6.43
2023-02-04T11:31:57.821Z,4.53
2023-02-04T11:34:19.407Z,2.63
2023-02-04T11:36:21.094Z,3.88
2023-02-04T11:38:25.812Z,2.83
2023-02-04T11:40:36.359Z,3.53
2023-02-04T11:42:43.769Z,6.35
2023-02-04T11:45:09.316Z,4.35
2023-02-04T11:47:10.983Z,3.25
2023-02-04T11:49:18.587Z,4.55
2023-02-04T11:51:22.868Z,2.53
2023-02-04T11:53:34.314Z,5.18
2023-02-04T11:55:42.752Z,4.50
2023-02-04T11:57:45.262Z,7.05
2023-02-04T11:59:46.873Z,6.05
2023-02-04T12:01:48.502Z,6.43
2023-02-04T12:03:51.969Z,5.13
2023-02-04T12:05:57.107Z,3.63
2023-02-04T12:08:11.785Z,3.63
2023-02-04T12:10:19.606Z,2.47
2023-02-04T12:12:26.601Z,8.80
2023-02-04T12:14:31.835Z,4.57
2023-02-04T12:16:53.487Z,2.95
2023-02-04T12:18:55.588Z,6.10
2023-02-04T12:20:57.737Z,12.32
2023-02-04T12:22:59.371Z,6.53
2023-02-04T12:25:00.975Z,4.38
2023-02-04T12:27:02.681Z,3.97
2023-02-04T12:29:05.682Z,4.28
2023-02-04T12:31:07.597Z,4.30
2023-02-04T12:33:09.548Z,5.65
2023-02-04T12:35:11.236Z,6.25
2023-02-04T12:37:12.887Z,2.92
2023-02-04T12:39:14.489Z,5.10
2023-02-04T12:41:16.139Z,4.05
2023-02-04T12:43:17.762Z,6.53
2023-02-04T12:45:19.724Z,3.97
2023-02-04T12:47:21.421Z,4.55
2023-02-04T12:49:24.404Z,3.92
2023-02-04T12:51:26.064Z,5.85
2023-02-04T12:53:27.975Z,6.10
2023-02-04T12:55:30.371Z,6.32
2023-02-04T12:57:33.014Z,4.10
2023-02-04T12:59:34.623Z,5.28
2023-02-04T13:01:36.288Z,4.75
2023-02-04T13:03:38.092Z,6.00
2023-02-04T13:05:39.737Z,4.22
2023-02-04T13:07:41.656Z,2.42
2023-02-04T13:09:45.178Z,4.90
2023-02-04T13:11:46.881Z,7.57
2023-02-04T13:13:48.522Z,4.10
2023-02-04T13:15:50.256Z,3.58
2023-02-04T13:17:51.910Z,2.80
2023-02-04T13:19:53.550Z,5.28
2023-02-04T13:21:55.254Z,2.20
2023-02-04T13:23:57.429Z,4.07
2023-02-04T13:25:59.040Z,4.93
2023-02-04T13:28:01.613Z,2.15
2023-02-04T13:30:05.195Z,3.47
2023-02-04T13:32:06.855Z,4.82
2023-02-04T13:34:08.593Z,6.25
2023-02-04T13:36:10.226Z,4.32
2023-02-04T13:38:11.893Z,11.93
2023-02-04T13:40:13.800Z,4.18
2023-02-04T13:42:15.479Z,5.88
2023-02-04T13:44:17.134Z,6.53
2023-02-04T13:46:18.854Z,1.70
2023-02-04T13:48:20.519Z,3.75
2023-02-04T13:50:23.921Z,4.88
2023-02-04T13:52:25.689Z,4.28
2023-02-04T13:54:27.313Z,4.88
2023-02-04T13:56:29.019Z,7.32
2023-02-04T13:58:30.672Z,5.88
2023-02-04T14:00:32.608Z,2.78
2023-02-04T14:02:34.648Z,9.02
2023-02-04T14:04:39.279Z,3.28
2023-02-04T14:06:43.714Z,4.60
2023-02-04T14:08:45.418Z,4.63
2023-02-04T14:10:47.230Z,3.75
2023-02-04T14:12:48.974Z,5.28
2023-02-04T14:14:50.589Z,4.43
2023-02-04T14:16:52.367Z,6.03
2023-02-04T14:18:54.148Z,3.15
2023-02-04T14:20:55.771Z,4.88
2023-02-04T14:22:57.518Z,2.25
2023-02-04T14:24:59.172Z,6.03
2023-02-04T14:27:04.032Z,3.15
2023-02-04T14:29:07.061Z,3.72
2023-02-04T14:31:08.683Z,2.90
2023-02-04T14:33:10.382Z,3.33
2023-02-04T14:35:12.434Z,9.05
2023-02-04T14:37:14.125Z,3.92
2023-02-04T14:39:15.741Z,4.30
2023-02-04T14:41:20.089Z,5.15
2023-02-04T14:43:21.752Z,3.33
2023-02-04T14:45:23.425Z,4.63
2023-02-04T14:47:25.128Z,5.93
2023-02-04T14:49:26.834Z,2.90
2023-02-04T14:51:28.439Z,5.82
2023-02-04T14:53:30.477Z,5.07
2023-02-04T14:55:32.143Z,2.90
2023-02-04T14:57:33.762Z,3.25
2023-02-04T14:59:35.352Z,5.10
2023-02-04T15:01:36.979Z,2.75
2023-02-04T15:03:38.722Z,3.95
2023-02-04T15:05:40.386Z,1.95
2023-02-04T15:07:42.372Z,4.43
2023-02-04T15:09:44.717Z,4.25
2023-02-04T15:11:46.298Z,1.83
2023-02-04T15:13:47.963Z,8.02
2023-02-04T15:15:49.617Z,2.90
2023-02-04T15:17:51.564Z,3.50
2023-02-04T15:19:53.247Z,2.63
2023-02-04T15:21:54.872Z,5.40
2023-02-04T15:23:56.470Z,9.38
2023-02-04T15:25:58.085Z,5.28
2023-02-04T15:27:59.899Z,4.55
2023-02-04T15:30:01.559Z,4.90
2023-02-04T15:32:03.370Z,5.10
2023-02-04T15:34:06.151Z,9.02
2023-02-04T15:36:08.267Z,2.80
2023-02-04T15:38:11.818Z,7.22
2023-02-04T15:40:13.569Z,3.88
2023-02-04T15:42:15.380Z,7.45
2023-02-04T15:44:17.187Z,3.63
2023-02-04T15:46:18.888Z,3.10
2023-02-04T15:48:21.200Z,2.88
2023-02-04T15:50:22.836Z,5.82
2023-02-04T15:52:25.766Z,4.15
2023-02-04T15:54:27.736Z,4.47
2023-02-04T15:56:29.363Z,2.95
2023-02-04T15:58:31.916Z,1.95
2023-02-04T16:00:33.951Z,6.07
2023-02-04T16:02:35.912Z,5.82
2023-02-04T16:04:37.823Z,2.10
2023-02-04T16:06:43.021Z,3.95
2023-02-04T16:08:46.667Z,4.22
2023-02-04T16:10:48.388Z,3.05
2023-02-04T16:12:51.390Z,4.00
2023-02-04T16:14:53.041Z,6.30
2023-02-04T16:16:54.659Z,3.75
2023-02-04T16:18:56.339Z,2.60
2023-02-04T16:20:57.980Z,3.78
2023-02-04T16:22:59.662Z,4.10
2023-02-04T16:25:01.344Z,7.30
2023-02-04T16:27:02.969Z,3.85
2023-02-04T16:29:05.016Z,4.50
2023-02-04T16:31:09.759Z,8.05
2023-02-04T16:33:11.798Z,3.53
2023-02-04T16:35:14.440Z,3.05
2023-02-04T16:37:16.751Z,4.53
2023-02-04T16:39:18.396Z,3.80
2023-02-04T16:41:20.098Z,5.18
2023-02-04T16:43:22.153Z,4.68
2023-02-04T16:45:24.369Z,10.18
2023-02-04T16:47:26.169Z,9.32
2023-02-04T16:49:27.775Z,7.57
2023-02-04T16:51:29.468Z,13.55
2023-02-04T16:53:32.191Z,10.18
2023-02-04T16:55:35.126Z,8.90
2023-02-04T16:57:37.027Z,19.38
2023-02-04T16:59:38.622Z,13.35
2023-02-04T17:01:40.357Z,11.98
2023-02-04T17:03:42.122Z,9.68
2023-02-04T17:05:43.859Z,10.77
2023-02-04T17:07:45.482Z,9.38
2023-02-04T17:09:47.069Z,5.47
2023-02-04T17:11:48.737Z,8.73
2023-02-04T17:13:50.446Z,7.55
2023-02-04T17:15:52.211Z,7.00
2023-02-04T17:17:53.879Z,10.15
2023-02-04T17:19:55.826Z,9.50
2023-02-04T17:21:57.584Z,12.90
2023-02-04T17:24:04.366Z,14.75
2023-02-04T17:26:06.105Z,9.25
2023-02-04T17:28:07.814Z,11.10
2023-02-04T17:30:10.422Z,9.15
2023-02-04T17:32:12.480Z,11.75
2023-02-04T17:34:14.091Z,7.03
2023-02-04T17:36:15.779Z,7.68
2023-02-04T17:38:17.495Z,16.40
2023-02-04T17:40:19.202Z,6.90
2023-02-04T17:42:20.852Z,11.82
2023-02-04T17:44:26.642Z,33.30
2023-02-04T17:46:29.528Z,23.02
2023-02-04T17:48:32.018Z,19.98
2023-02-04T17:52:43.144Z,22.30
2023-02-04T17:54:44.802Z,41.40
2023-02-04T17:56:46.466Z,29.45
2023-02-04T17:58:48.124Z,26.70
2023-02-04T18:00:50.491Z,20.48
2023-02-04T18:02:53.132Z,21.60
2023-02-04T18:04:58.584Z,13.35
2023-02-04T18:07:00.210Z,10.38
2023-02-04T18:09:02.223Z,12.35
2023-02-04T18:11:16.941Z,10.00
2023-02-04T18:13:21.264Z,8.88
2023-02-04T18:15:32.087Z,8.73
2023-02-04T18:17:33.848Z,10.18
2023-02-04T18:19:37.062Z,10.80
2023-02-04T18:21:38.820Z,14.10
2023-02-04T18:23:40.708Z,11.77
2023-02-04T18:25:42.829Z,12.32
2023-02-04T18:27:44.527Z,14.52
2023-02-04T18:29:48.835Z,18.45
2023-02-04T18:31:56.564Z,40.65
2023-02-04T18:33:58.280Z,36.90
2023-02-04T18:36:02.126Z,20.15
2023-02-04T18:38:18.541Z,22.98
2023-02-04T18:40:26.565Z,28.55
2023-02-04T18:42:28.782Z,15.45
2023-02-04T18:44:34.225Z,10.73
2023-02-04T18:46:37.266Z,9.98
2023-02-04T18:49:01.608Z,12.93
2023-02-04T18:51:07.291Z,34.40
2023-02-04T18:53:15.349Z,38.30
2023-02-04T18:55:32.598Z,32.85
2023-02-04T18:57:36.365Z,38.83
2023-02-04T18:59:38.133Z,28.77
2023-02-04T19:01:39.756Z,23.65
2023-02-04T19:04:12.600Z,21.90
2023-02-04T19:06:54.581Z,12.50
2023-02-04T19:09:14.784Z,7.00
2023-02-04T19:11:48.878Z,13.75
2023-02-04T19:13:57.980Z,8.95
2023-02-04T19:16:05.346Z,8.25
2023-02-04T19:18:18.038Z,9.18
2023-02-04T19:20:23.087Z,6.68
2023-02-04T19:22:46.349Z,10.93
2023-02-04T19:24:55.895Z,8.98
2023-02-04T19:26:59.643Z,11.48
2023-02-04T19:29:21.895Z,9.23
2023-02-04T19:31:27.819Z,9.73
2023-02-04T19:33:42.052Z,10.40
2023-02-04T19:35:46.260Z,10.38
2023-02-04T19:37:57.458Z,13.82
2023-02-04T19:40:01.551Z,10.65
2023-02-04T19:42:37.939Z,9.90
2023-02-04T19:44:46.438Z,13.25
2023-02-04T19:46:48.091Z,6.95
2023-02-04T19:48:49.881Z,9.18
2023-02-04T19:50:55.155Z,5.43
2023-02-04T19:53:18.450Z,5.43
2023-02-04T19:55:25.345Z,5.53
2023-02-04T19:57:28.583Z,9.05
2023-02-04T19:59:34.113Z,6.03
2023-02-04T20:01:35.784Z,9.05
2023-02-04T20:03:46.738Z,7.80
2023-02-04T20:05:48.361Z,4.68
2023-02-04T20:07:50.100Z,5.97
2023-02-04T20:10:01.706Z,5.10
2023-02-04T20:12:10.075Z,6.60
2023-02-04T20:14:14.727Z,5.70
2023-02-04T20:16:40.831Z,11.32
2023-02-04T20:18:45.332Z,9.93
2023-02-04T20:20:47.296Z,10.93
2023-02-04T20:23:01.783Z,17.90
2023-02-04T20:25:28.495Z,11.27
2023-02-04T20:27:39.329Z,18.63
2023-02-04T20:29:40.910Z,9.90
2023-02-04T20:31:42.603Z,10.80
2023-02-04T20:33:59.489Z,8.27
2023-02-04T20:36:26.602Z,8.18
2023-02-04T20:38:28.260Z,6.03
2023-02-04T20:40:34.260Z,4.82
2023-02-04T20:42:58.457Z,4.75
2023-02-04T20:45:15.181Z,5.53
2023-02-04T20:47:25.470Z,7.75
2023-02-04T20:49:27.111Z,6.85
2023-02-04T20:51:28.751Z,8.05
2023-02-04T20:53:40.401Z,5.80
2023-02-04T20:55:47.209Z,5.63
2023-02-04T20:57:48.965Z,4.53
2023-02-04T20:59:50.672Z,15.80
2023-02-04T21:01:53.578Z,6.55
2023-02-04T21:03:56.325Z,6.45
2023-02-04T21:05:59.971Z,11.00
2023-02-04T21:08:03.184Z,8.50
2023-02-04T21:10:05.156Z,10.23
2023-02-04T21:12:07.258Z,11.43
2023-02-04T21:14:09.553Z,15.55
2023-02-04T21:16:11.360Z,9.80
2023-02-04T21:18:13.036Z,8.63
2023-02-04T21:20:14.677Z,12.65
2023-02-04T21:22:16.321Z,9.13
2023-02-04T21:24:18.441Z,9.48
2023-02-04T21:26:20.201Z,13.20
2023-02-04T21:28:21.915Z,7.63
2023-02-04T21:30:30.332Z,9.27
2023-02-04T21:32:32.335Z,10.27
2023-02-04T21:34:33.907Z,13.55
2023-02-04T21:36:35.577Z,7.65
2023-02-04T21:38:37.522Z,14.63
2023-02-04T21:40:39.353Z,13.70
2023-02-04T21:42:40.975Z,6.20
2023-02-04T21:44:42.629Z,7.50
2023-02-04T21:46:44.284Z,8.82
2023-02-04T21:48:46.529Z,8.27
2023-02-04T21:50:48.188Z,6.50
2023-02-04T21:52:50.370Z,7.18
2023-02-04T21:54:51.978Z,6.30
2023-02-04T21:56:53.626Z,7.35
2023-02-04T21:58:56.536Z,12.48
2023-02-04T22:00:58.137Z,4.82
2023-02-04T22:03:00.099Z,5.32
2023-02-04T22:05:02.686Z,6.85
2023-02-04T22:07:04.322Z,5.88
2023-02-04T22:09:05.989Z,12.43
2023-02-04T22:11:07.645Z,6.80
2023-02-04T22:13:09.437Z,11.57
2023-02-04T22:15:21.670Z,8.90
2023-02-04T22:17:23.545Z,14.18
2023-02-04T22:19:25.817Z,11.35
2023-02-04T22:21:27.450Z,12.77
2023-02-04T22:23:29.205Z,9.75
2023-02-04T22:25:30.960Z,12.48
2023-02-04T22:27:32.651Z,11.05
2023-02-04T22:29:34.225Z,10.18
2023-02-04T22:31:36.129Z,11.45
2023-02-04T22:33:37.836Z,11.30
2023-02-04T22:35:39.634Z,6.78
2023-02-04T22:37:42.088Z,7.63
2023-02-04T22:39:43.736Z,8.30
2023-02-04T22:41:45.361Z,7.88
2023-02-04T22:43:47.126Z,8.13
2023-02-04T22:45:48.728Z,9.15
2023-02-04T22:47:50.659Z,5.53
2023-02-04T22:49:52.307Z,5.20
2023-02-04T22:51:53.926Z,6.75
2023-02-04T22:53:55.549Z,12.05
2023-02-04T22:55:57.162Z,10.95
2023-02-04T22:57:58.977Z,8.93
2023-02-04T23:00:00.618Z,8.55
2023-02-04T23:02:02.243Z,6.35
2023-02-04T23:04:04.062Z,9.02
2023-02-04T23:06:05.806Z,8.15
2023-02-04T23:08:07.516Z,13.85
2023-02-04T23:10:09.378Z,12.77
2023-02-04T23:12:13.949Z,10.90
2023-02-04T23:14:15.690Z,12.02
2023-02-04T23:16:19.114Z,13.00
2023-02-04T23:18:20.833Z,11.95
2023-02-04T23:20:22.553Z,13.10
2023-02-04T23:22:24.450Z,12.57
2023-02-04T23:24:26.041Z,11.93
2023-02-04T23:26:27.645Z,16.38
2023-02-04T23:28:30.693Z,20.17
2023-02-04T23:30:32.381Z,32.55
2023-02-04T23:32:34.112Z,20.40
2023-02-04T23:34:35.912Z,21.83
2023-02-04T23:36:37.594Z,20.95
2023-02-04T23:38:39.455Z,19.40
2023-02-04T23:40:41.130Z,21.45
2023-02-04T23:42:42.840Z,20.75
2023-02-04T23:44:44.494Z,14.07
2023-02-04T23:46:46.273Z,15.77
2023-02-04T23:48:47.947Z,16.15
2023-02-04T23:50:49.601Z,12.60
2023-02-04T23:52:51.299Z,11.48
2023-02-04T23:54:52.944Z,14.50
2023-02-04T23:56:54.641Z,10.40
2023-02-04T23:58:56.593Z,10.65
